sensor_id;sensor_type;location;lat;lon;timestamp;P1;durP1;ratioP1;P2;durP2;ratioP2
28459;SDS011;32528;45.712;9.192;2023-07-02T00:00:45;5.70;;;3.05;;
28459;SDS011;32528;45.712;9.192;2023-07-02T00:02:46;8.38;;;3.78;;
28459;SDS011;32528;45.712;9.192;2023-07-02T00:04:47;25.48;;;3.80;;
28459;SDS011;32528;45.712;9.192;2023-07-02T00:06:48;8.52;;;3.05;;
28459;SDS011;32528;45.712;9.192;2023-07-02T00:08:50;9.05;;;3.47;;
28459;SDS011;32528;45.712;9.192;2023-07-02T00:10:51;9.15;;;3.45;;
28459;SDS011;32528;45.712;9.192;2023-07-02T00:12:52;10.13;;;3.35;;
28459;SDS011;32528;45.712;9.192;2023-07-02T00:14:52;9.63;;;3.85;;
28459;SDS011;32528;45.712;9.192;2023-07-02T00:16:53;5.57;;;3.80;;
28459;SDS011;32528;45.712;9.192;2023-07-02T00:18:54;7.15;;;3.78;;
28459;SDS011;32528;45.712;9.192;2023-07-02T00:20:55;6.15;;;3.00;;
28459;SDS011;32528;45.712;9.192;2023-07-02T00:22:56;8.95;;;3.35;;
28459;SDS011;32528;45.712;9.192;2023-07-02T00:24:57;9.10;;;2.97;;
28459;SDS011;32528;45.712;9.192;2023-07-02T00:26:58;6.60;;;3.10;;
28459;SDS011;32528;45.712;9.192;2023-07-02T00:28:58;7.82;;;3.20;;
28459;SDS011;32528;45.712;9.192;2023-07-02T00:31:00;10.90;;;2.97;;
28459;SDS011;32528;45.712;9.192;2023-07-02T00:33:02;18.70;;;3.40;;
28459;SDS011;32528;45.712;9.192;2023-07-02T00:35:03;5.85;;;3.42;;
28459;SDS011;32528;45.712;9.192;2023-07-02T00:37:04;9.15;;;3.38;;
28459;SDS011;32528;45.712;9.192;2023-07-02T00:39:05;10.52;;;3.53;;
28459;SDS011;32528;45.712;9.192;2023-07-02T00:41:05;6.53;;;3.10;;
28459;SDS011;32528;45.712;9.192;2023-07-02T00:43:06;5.50;;;3.33;;
28459;SDS011;32528;45.712;9.192;2023-07-02T00:45:13;9.25;;;3.85;;
28459;SDS011;32528;45.712;9.192;2023-07-02T00:47:13;14.10;;;3.92;;
28459;SDS011;32528;45.712;9.192;2023-07-02T00:49:15;8.05;;;3.20;;
28459;SDS011;32528;45.712;9.192;2023-07-02T00:51:19;8.63;;;2.88;;
28459;SDS011;32528;45.712;9.192;2023-07-02T00:53:25;7.20;;;3.55;;
28459;SDS011;32528;45.712;9.192;2023-07-02T00:55:26;7.22;;;3.47;;
28459;SDS011;32528;45.712;9.192;2023-07-02T00:57:28;7.30;;;3.35;;
28459;SDS011;32528;45.712;9.192;2023-07-02T00:59:30;9.90;;;4.57;;
28459;SDS011;32528;45.712;9.192;2023-07-02T01:01:36;5.47;;;2.83;;
28459;SDS011;32528;45.712;9.192;2023-07-02T01:03:38;7.60;;;3.42;;
28459;SDS011;32528;45.712;9.192;2023-07-02T01:05:39;5.88;;;2.90;;
28459;SDS011;32528;45.712;9.192;2023-07-02T01:07:42;7.63;;;3.95;;
28459;SDS011;32528;45.712;9.192;2023-07-02T01:09:42;6.47;;;3.88;;
28459;SDS011;32528;45.712;9.192;2023-07-02T01:11:44;7.82;;;3.58;;
28459;SDS011;32528;45.712;9.192;2023-07-02T01:13:47;5.72;;;3.05;;
28459;SDS011;32528;45.712;9.192;2023-07-02T01:15:50;14.77;;;4.35;;
28459;SDS011;32528;45.712;9.192;2023-07-02T01:17:52;8.48;;;3.83;;
28459;SDS011;32528;45.712;9.192;2023-07-02T01:19:53;12.35;;;4.07;;
28459;SDS011;32528;45.712;9.192;2023-07-02T01:21:59;16.77;;;3.80;;
28459;SDS011;32528;45.712;9.192;2023-07-02T01:24:00;10.52;;;3.47;;
28459;SDS011;32528;45.712;9.192;2023-07-02T01:26:01;9.57;;;3.53;;
28459;SDS011;32528;45.712;9.192;2023-07-02T01:28:02;6.70;;;3.13;;
28459;SDS011;32528;45.712;9.192;2023-07-02T01:30:03;5.60;;;3.63;;
28459;SDS011;32528;45.712;9.192;2023-07-02T01:32:05;14.88;;;4.03;;
28459;SDS011;32528;45.712;9.192;2023-07-02T01:34:06;7.45;;;4.20;;
28459;SDS011;32528;45.712;9.192;2023-07-02T01:36:08;8.13;;;4.10;;
28459;SDS011;32528;45.712;9.192;2023-07-02T01:38:09;12.23;;;3.78;;
28459;SDS011;32528;45.712;9.192;2023-07-02T01:40:10;11.48;;;4.25;;
28459;SDS011;32528;45.712;9.192;2023-07-02T01:42:12;14.63;;;4.68;;
28459;SDS011;32528;45.712;9.192;2023-07-02T01:44:17;8.02;;;4.25;;
28459;SDS011;32528;45.712;9.192;2023-07-02T01:46:19;9.35;;;3.88;;
28459;SDS011;32528;45.712;9.192;2023-07-02T01:48:20;9.00;;;4.47;;
28459;SDS011;32528;45.712;9.192;2023-07-02T01:50:21;8.95;;;4.22;;
28459;SDS011;32528;45.712;9.192;2023-07-02T01:52:22;9.88;;;4.57;;
28459;SDS011;32528;45.712;9.192;2023-07-02T01:54:23;7.38;;;4.10;;
28459;SDS011;32528;45.712;9.192;2023-07-02T01:56:27;9.55;;;3.92;;
28459;SDS011;32528;45.712;9.192;2023-07-02T01:58:29;10.48;;;4.53;;
28459;SDS011;32528;45.712;9.192;2023-07-02T02:00:30;8.02;;;3.80;;
28459;SDS011;32528;45.712;9.192;2023-07-02T02:02:32;7.88;;;3.70;;
28459;SDS011;32528;45.712;9.192;2023-07-02T02:04:33;12.15;;;3.17;;
28459;SDS011;32528;45.712;9.192;2023-07-02T02:06:33;11.90;;;4.07;;
28459;SDS011;32528;45.712;9.192;2023-07-02T02:08:34;9.82;;;4.07;;
28459;SDS011;32528;45.712;9.192;2023-07-02T02:10:35;6.65;;;3.70;;
28459;SDS011;32528;45.712;9.192;2023-07-02T02:12:36;8.07;;;3.67;;
28459;SDS011;32528;45.712;9.192;2023-07-02T02:14:40;11.10;;;4.07;;
28459;SDS011;32528;45.712;9.192;2023-07-02T02:16:41;5.97;;;3.83;;
28459;SDS011;32528;45.712;9.192;2023-07-02T02:18:45;9.60;;;3.85;;
28459;SDS011;32528;45.712;9.192;2023-07-02T02:20:46;6.70;;;3.80;;
28459;SDS011;32528;45.712;9.192;2023-07-02T02:22:46;7.95;;;4.57;;
28459;SDS011;32528;45.712;9.192;2023-07-02T02:24:47;7.15;;;4.50;;
28459;SDS011;32528;45.712;9.192;2023-07-02T02:26:48;9.55;;;4.65;;
28459;SDS011;32528;45.712;9.192;2023-07-02T02:28:49;7.20;;;4.07;;
28459;SDS011;32528;45.712;9.192;2023-07-02T02:30:50;9.48;;;5.15;;
28459;SDS011;32528;45.712;9.192;2023-07-02T02:32:51;8.63;;;4.53;;
28459;SDS011;32528;45.712;9.192;2023-07-02T02:34:52;18.63;;;4.55;;
28459;SDS011;32528;45.712;9.192;2023-07-02T02:36:54;8.32;;;3.78;;
28459;SDS011;32528;45.712;9.192;2023-07-02T02:38:56;7.95;;;5.13;;
28459;SDS011;32528;45.712;9.192;2023-07-02T02:40:58;7.65;;;4.13;;
28459;SDS011;32528;45.712;9.192;2023-07-02T02:42:59;9.13;;;4.80;;
28459;SDS011;32528;45.712;9.192;2023-07-02T02:44:59;12.38;;;4.43;;
28459;SDS011;32528;45.712;9.192;2023-07-02T02:47:00;14.07;;;4.63;;
28459;SDS011;32528;45.712;9.192;2023-07-02T02:49:03;6.68;;;4.13;;
28459;SDS011;32528;45.712;9.192;2023-07-02T02:51:04;13.90;;;4.90;;
28459;SDS011;32528;45.712;9.192;2023-07-02T02:53:05;19.13;;;5.13;;
28459;SDS011;32528;45.712;9.192;2023-07-02T02:55:07;21.60;;;5.20;;
28459;SDS011;32528;45.712;9.192;2023-07-02T02:57:09;12.45;;;4.80;;
28459;SDS011;32528;45.712;9.192;2023-07-02T02:59:10;8.30;;;4.88;;
28459;SDS011;32528;45.712;9.192;2023-07-02T03:01:11;8.52;;;4.75;;
28459;SDS011;32528;45.712;9.192;2023-07-02T03:03:14;9.13;;;4.38;;
28459;SDS011;32528;45.712;9.192;2023-07-02T03:05:17;8.57;;;4.22;;
28459;SDS011;32528;45.712;9.192;2023-07-02T03:07:17;19.00;;;4.70;;
28459;SDS011;32528;45.712;9.192;2023-07-02T03:09:18;8.95;;;4.97;;
28459;SDS011;32528;45.712;9.192;2023-07-02T03:11:19;7.93;;;4.43;;
28459;SDS011;32528;45.712;9.192;2023-07-02T03:13:20;8.63;;;4.07;;
28459;SDS011;32528;45.712;9.192;2023-07-02T03:15:22;12.40;;;4.45;;
28459;SDS011;32528;45.712;9.192;2023-07-02T03:17:23;7.53;;;4.50;;
28459;SDS011;32528;45.712;9.192;2023-07-02T03:19:24;13.35;;;4.82;;
28459;SDS011;32528;45.712;9.192;2023-07-02T03:21:25;7.68;;;4.22;;
28459;SDS011;32528;45.712;9.192;2023-07-02T03:23:25;12.45;;;4.78;;
28459;SDS011;32528;45.712;9.192;2023-07-02T03:25:26;9.23;;;5.15;;
28459;SDS011;32528;45.712;9.192;2023-07-02T03:27:27;14.32;;;4.88;;
28459;SDS011;32528;45.712;9.192;2023-07-02T03:29:28;12.02;;;4.45;;
28459;SDS011;32528;45.712;9.192;2023-07-02T03:31:28;8.30;;;4.25;;
28459;SDS011;32528;45.712;9.192;2023-07-02T03:33:29;7.40;;;4.00;;
28459;SDS011;32528;45.712;9.192;2023-07-02T03:35:30;8.07;;;4.57;;
28459;SDS011;32528;45.712;9.192;2023-07-02T03:37:31;7.95;;;4.40;;
28459;SDS011;32528;45.712;9.192;2023-07-02T03:39:31;7.47;;;4.50;;
28459;SDS011;32528;45.712;9.192;2023-07-02T03:41:32;10.88;;;5.00;;
28459;SDS011;32528;45.712;9.192;2023-07-02T03:43:33;10.73;;;5.55;;
28459;SDS011;32528;45.712;9.192;2023-07-02T03:45:35;7.35;;;4.57;;
28459;SDS011;32528;45.712;9.192;2023-07-02T03:47:37;8.45;;;4.55;;
28459;SDS011;32528;45.712;9.192;2023-07-02T03:49:37;11.75;;;4.97;;
28459;SDS011;32528;45.712;9.192;2023-07-02T03:51:39;9.80;;;5.68;;
28459;SDS011;32528;45.712;9.192;2023-07-02T03:53:40;8.35;;;4.80;;
28459;SDS011;32528;45.712;9.192;2023-07-02T03:55:41;11.00;;;5.43;;
28459;SDS011;32528;45.712;9.192;2023-07-02T03:57:42;8.38;;;4.57;;
28459;SDS011;32528;45.712;9.192;2023-07-02T03:59:44;7.15;;;4.97;;
28459;SDS011;32528;45.712;9.192;2023-07-02T04:01:45;8.57;;;4.75;;
28459;SDS011;32528;45.712;9.192;2023-07-02T04:03:50;15.90;;;5.60;;
28459;SDS011;32528;45.712;9.192;2023-07-02T04:05:51;9.55;;;4.95;;
28459;SDS011;32528;45.712;9.192;2023-07-02T04:07:52;9.23;;;4.32;;
28459;SDS011;32528;45.712;9.192;2023-07-02T04:09:53;7.68;;;3.67;;
28459;SDS011;32528;45.712;9.192;2023-07-02T04:11:54;8.13;;;4.47;;
28459;SDS011;32528;45.712;9.192;2023-07-02T04:13:55;10.02;;;4.57;;
28459;SDS011;32528;45.712;9.192;2023-07-02T04:15:55;14.43;;;5.10;;
28459;SDS011;32528;45.712;9.192;2023-07-02T04:17:57;9.68;;;4.25;;
28459;SDS011;32528;45.712;9.192;2023-07-02T04:19:59;8.00;;;4.68;;
28459;SDS011;32528;45.712;9.192;2023-07-02T04:22:01;15.82;;;4.72;;
28459;SDS011;32528;45.712;9.192;2023-07-02T04:24:02;8.85;;;5.28;;
28459;SDS011;32528;45.712;9.192;2023-07-02T04:26:03;15.65;;;4.38;;
28459;SDS011;32528;45.712;9.192;2023-07-02T04:28:04;10.02;;;4.95;;
28459;SDS011;32528;45.712;9.192;2023-07-02T04:32:08;14.30;;;4.43;;
28459;SDS011;32528;45.712;9.192;2023-07-02T04:34:08;9.13;;;4.53;;
28459;SDS011;32528;45.712;9.192;2023-07-02T04:36:10;12.48;;;5.20;;
28459;SDS011;32528;45.712;9.192;2023-07-02T04:38:10;9.00;;;5.50;;
28459;SDS011;32528;45.712;9.192;2023-07-02T04:40:12;16.25;;;5.25;;
28459;SDS011;32528;45.712;9.192;2023-07-02T04:44:15;11.05;;;5.68;;
28459;SDS011;32528;45.712;9.192;2023-07-02T04:46:15;10.02;;;6.10;;
28459;SDS011;32528;45.712;9.192;2023-07-02T04:52:19;8.50;;;4.93;;
28459;SDS011;32528;45.712;9.192;2023-07-02T04:54:20;6.38;;;3.92;;
28459;SDS011;32528;45.712;9.192;2023-07-02T04:56:21;9.48;;;5.35;;
28459;SDS011;32528;45.712;9.192;2023-07-02T04:58:22;8.30;;;4.57;;
28459;SDS011;32528;45.712;9.192;2023-07-02T05:02:23;8.43;;;4.50;;
28459;SDS011;32528;45.712;9.192;2023-07-02T05:04:25;10.50;;;5.72;;
28459;SDS011;32528;45.712;9.192;2023-07-02T05:06:25;11.27;;;5.43;;
28459;SDS011;32528;45.712;9.192;2023-07-02T05:10:27;12.20;;;5.85;;
28459;SDS011;32528;45.712;9.192;2023-07-02T05:12:28;8.25;;;5.15;;
28459;SDS011;32528;45.712;9.192;2023-07-02T05:14:28;13.15;;;5.20;;
28459;SDS011;32528;45.712;9.192;2023-07-02T05:16:29;10.13;;;4.93;;
28459;SDS011;32528;45.712;9.192;2023-07-02T05:18:30;11.88;;;6.43;;
28459;SDS011;32528;45.712;9.192;2023-07-02T05:20:31;10.73;;;5.07;;
28459;SDS011;32528;45.712;9.192;2023-07-02T05:22:32;9.93;;;4.50;;
28459;SDS011;32528;45.712;9.192;2023-07-02T05:24:32;8.63;;;5.20;;
28459;SDS011;32528;45.712;9.192;2023-07-02T05:26:33;8.85;;;5.63;;
28459;SDS011;32528;45.712;9.192;2023-07-02T05:28:35;9.63;;;4.43;;
28459;SDS011;32528;45.712;9.192;2023-07-02T05:30:35;8.10;;;5.32;;
28459;SDS011;32528;45.712;9.192;2023-07-02T05:32:37;14.73;;;6.10;;
28459;SDS011;32528;45.712;9.192;2023-07-02T05:34:39;11.25;;;4.93;;
28459;SDS011;32528;45.712;9.192;2023-07-02T05:36:40;13.15;;;6.38;;
28459;SDS011;32528;45.712;9.192;2023-07-02T05:38:41;9.18;;;5.50;;
28459;SDS011;32528;45.712;9.192;2023-07-02T05:40:41;9.95;;;5.60;;
28459;SDS011;32528;45.712;9.192;2023-07-02T05:42:42;9.77;;;6.00;;
28459;SDS011;32528;45.712;9.192;2023-07-02T05:44:43;9.32;;;5.60;;
28459;SDS011;32528;45.712;9.192;2023-07-02T05:46:43;11.63;;;5.78;;
28459;SDS011;32528;45.712;9.192;2023-07-02T05:48:44;9.68;;;5.28;;
28459;SDS011;32528;45.712;9.192;2023-07-02T05:50:45;9.52;;;5.95;;
28459;SDS011;32528;45.712;9.192;2023-07-02T05:52:46;12.48;;;5.05;;
28459;SDS011;32528;45.712;9.192;2023-07-02T05:58:49;8.15;;;4.70;;
28459;SDS011;32528;45.712;9.192;2023-07-02T06:00:51;9.38;;;5.50;;
28459;SDS011;32528;45.712;9.192;2023-07-02T06:02:52;8.38;;;5.40;;
28459;SDS011;32528;45.712;9.192;2023-07-02T06:08:54;15.45;;;7.00;;
28459;SDS011;32528;45.712;9.192;2023-07-02T06:10:55;13.68;;;9.07;;
28459;SDS011;32528;45.712;9.192;2023-07-02T06:16:57;16.73;;;7.05;;
28459;SDS011;32528;45.712;9.192;2023-07-02T06:21:00;17.88;;;9.85;;
28459;SDS011;32528;45.712;9.192;2023-07-02T06:23:00;20.00;;;12.45;;
28459;SDS011;32528;45.712;9.192;2023-07-02T06:25:01;19.80;;;13.82;;
28459;SDS011;32528;45.712;9.192;2023-07-02T06:27:02;17.85;;;12.07;;
28459;SDS011;32528;45.712;9.192;2023-07-02T06:31:04;22.80;;;12.55;;
28459;SDS011;32528;45.712;9.192;2023-07-02T06:33:06;18.60;;;13.10;;
28459;SDS011;32528;45.712;9.192;2023-07-02T06:35:07;22.27;;;13.63;;
28459;SDS011;32528;45.712;9.192;2023-07-02T06:37:09;22.80;;;15.55;;
28459;SDS011;32528;45.712;9.192;2023-07-02T06:45:12;24.13;;;15.20;;
28459;SDS011;32528;45.712;9.192;2023-07-02T07:17:33;25.60;;;14.25;;
28459;SDS011;32528;45.712;9.192;2023-07-02T07:19:34;22.05;;;15.18;;
28459;SDS011;32528;45.712;9.192;2023-07-02T07:21:34;27.13;;;16.83;;
28459;SDS011;32528;45.712;9.192;2023-07-02T07:23:35;22.77;;;15.15;;
28459;SDS011;32528;45.712;9.192;2023-07-02T07:25:37;27.40;;;15.77;;
28459;SDS011;32528;45.712;9.192;2023-07-02T07:29:38;23.38;;;15.40;;
28459;SDS011;32528;45.712;9.192;2023-07-02T07:31:39;24.00;;;16.80;;
28459;SDS011;32528;45.712;9.192;2023-07-02T07:43:48;20.48;;;13.27;;
28459;SDS011;32528;45.712;9.192;2023-07-02T07:45:49;18.10;;;14.52;;
28459;SDS011;32528;45.712;9.192;2023-07-02T07:47:49;24.40;;;16.80;;
28459;SDS011;32528;45.712;9.192;2023-07-02T07:49:51;23.58;;;16.58;;
28459;SDS011;32528;45.712;9.192;2023-07-02T07:51:51;17.45;;;12.88;;
28459;SDS011;32528;45.712;9.192;2023-07-02T07:53:52;19.98;;;13.57;;
28459;SDS011;32528;45.712;9.192;2023-07-02T07:55:53;18.27;;;11.27;;
28459;SDS011;32528;45.712;9.192;2023-07-02T07:57:55;21.00;;;12.35;;
28459;SDS011;32528;45.712;9.192;2023-07-02T07:59:56;18.55;;;13.48;;
28459;SDS011;32528;45.712;9.192;2023-07-02T08:01:58;33.45;;;14.75;;
28459;SDS011;32528;45.712;9.192;2023-07-02T08:03:59;16.85;;;10.40;;
28459;SDS011;32528;45.712;9.192;2023-07-02T08:06:00;19.90;;;10.18;;
28459;SDS011;32528;45.712;9.192;2023-07-02T08:08:01;18.15;;;11.65;;
28459;SDS011;32528;45.712;9.192;2023-07-02T08:10:01;22.80;;;12.52;;
28459;SDS011;32528;45.712;9.192;2023-07-02T08:12:02;14.80;;;10.15;;
28459;SDS011;32528;45.712;9.192;2023-07-02T08:14:03;16.25;;;10.48;;
28459;SDS011;32528;45.712;9.192;2023-07-02T08:16:04;17.60;;;10.50;;
28459;SDS011;32528;45.712;9.192;2023-07-02T08:18:05;15.98;;;11.10;;
28459;SDS011;32528;45.712;9.192;2023-07-02T08:20:07;14.32;;;10.43;;
28459;SDS011;32528;45.712;9.192;2023-07-02T08:22:09;15.48;;;10.68;;
28459;SDS011;32528;45.712;9.192;2023-07-02T08:24:10;20.83;;;10.75;;
28459;SDS011;32528;45.712;9.192;2023-07-02T08:26:13;20.67;;;10.93;;
28459;SDS011;32528;45.712;9.192;2023-07-02T08:28:14;15.63;;;10.35;;
28459;SDS011;32528;45.712;9.192;2023-07-02T08:30:16;16.95;;;11.82;;
28459;SDS011;32528;45.712;9.192;2023-07-02T08:32:16;15.38;;;10.40;;
28459;SDS011;32528;45.712;9.192;2023-07-02T08:34:18;19.35;;;11.07;;
28459;SDS011;32528;45.712;9.192;2023-07-02T08:36:18;18.83;;;11.67;;
28459;SDS011;32528;45.712;9.192;2023-07-02T08:38:20;18.70;;;11.17;;
28459;SDS011;32528;45.712;9.192;2023-07-02T08:40:20;18.00;;;11.10;;
28459;SDS011;32528;45.712;9.192;2023-07-02T08:42:21;14.30;;;10.07;;
28459;SDS011;32528;45.712;9.192;2023-07-02T08:44:22;15.85;;;10.43;;
28459;SDS011;32528;45.712;9.192;2023-07-02T08:46:24;15.73;;;10.38;;
28459;SDS011;32528;45.712;9.192;2023-07-02T08:48:25;15.40;;;10.55;;
28459;SDS011;32528;45.712;9.192;2023-07-02T08:50:26;16.73;;;10.88;;
28459;SDS011;32528;45.712;9.192;2023-07-02T08:52:27;12.55;;;9.65;;
28459;SDS011;32528;45.712;9.192;2023-07-02T08:54:30;17.02;;;11.10;;
28459;SDS011;32528;45.712;9.192;2023-07-02T08:56:30;13.30;;;8.93;;
28459;SDS011;32528;45.712;9.192;2023-07-02T08:58:32;14.30;;;8.50;;
28459;SDS011;32528;45.712;9.192;2023-07-02T09:00:32;14.93;;;8.80;;
28459;SDS011;32528;45.712;9.192;2023-07-02T09:02:37;14.27;;;9.38;;
28459;SDS011;32528;45.712;9.192;2023-07-02T09:04:37;14.18;;;9.73;;
28459;SDS011;32528;45.712;9.192;2023-07-02T09:06:38;17.97;;;9.37;;
28459;SDS011;32528;45.712;9.192;2023-07-02T09:08:39;16.95;;;10.65;;
28459;SDS011;32528;45.712;9.192;2023-07-02T09:10:39;13.90;;;9.07;;
28459;SDS011;32528;45.712;9.192;2023-07-02T09:12:40;13.15;;;8.10;;
28459;SDS011;32528;45.712;9.192;2023-07-02T09:14:41;12.55;;;8.23;;
28459;SDS011;32528;45.712;9.192;2023-07-02T09:16:42;13.07;;;8.07;;
28459;SDS011;32528;45.712;9.192;2023-07-02T09:18:43;14.60;;;8.85;;
28459;SDS011;32528;45.712;9.192;2023-07-02T09:20:44;14.35;;;8.82;;
28459;SDS011;32528;45.712;9.192;2023-07-02T09:22:53;14.02;;;9.18;;
28459;SDS011;32528;45.712;9.192;2023-07-02T09:24:55;15.00;;;9.30;;
28459;SDS011;32528;45.712;9.192;2023-07-02T09:26:58;12.18;;;8.60;;
28459;SDS011;32528;45.712;9.192;2023-07-02T09:29:00;12.93;;;8.63;;
28459;SDS011;32528;45.712;9.192;2023-07-02T09:31:02;11.93;;;8.10;;
28459;SDS011;32528;45.712;9.192;2023-07-02T09:33:06;11.98;;;8.85;;
28459;SDS011;32528;45.712;9.192;2023-07-02T09:35:07;14.10;;;10.07;;
28459;SDS011;32528;45.712;9.192;2023-07-02T09:37:08;13.43;;;10.05;;
28459;SDS011;32528;45.712;9.192;2023-07-02T09:39:13;14.77;;;9.97;;
28459;SDS011;32528;45.712;9.192;2023-07-02T09:41:14;11.65;;;8.50;;
28459;SDS011;32528;45.712;9.192;2023-07-02T09:43:17;14.25;;;9.52;;
28459;SDS011;32528;45.712;9.192;2023-07-02T09:45:19;13.15;;;9.95;;
28459;SDS011;32528;45.712;9.192;2023-07-02T09:47:21;13.32;;;9.65;;
28459;SDS011;32528;45.712;9.192;2023-07-02T09:49:25;13.57;;;10.00;;
28459;SDS011;32528;45.712;9.192;2023-07-02T09:51:27;12.70;;;9.48;;
28459;SDS011;32528;45.712;9.192;2023-07-02T09:53:28;16.40;;;9.00;;
28459;SDS011;32528;45.712;9.192;2023-07-02T09:55:29;14.77;;;11.00;;
28459;SDS011;32528;45.712;9.192;2023-07-02T09:57:30;14.63;;;9.48;;
28459;SDS011;32528;45.712;9.192;2023-07-02T09:59:32;13.07;;;8.43;;
28459;SDS011;32528;45.712;9.192;2023-07-02T10:01:33;13.87;;;9.60;;
28459;SDS011;32528;45.712;9.192;2023-07-02T10:03:35;10.52;;;7.93;;
28459;SDS011;32528;45.712;9.192;2023-07-02T10:05:35;14.40;;;8.77;;
28459;SDS011;32528;45.712;9.192;2023-07-02T10:07:36;11.25;;;8.25;;
28459;SDS011;32528;45.712;9.192;2023-07-02T10:09:37;14.53;;;8.67;;
28459;SDS011;32528;45.712;9.192;2023-07-02T10:11:44;12.48;;;8.05;;
28459;SDS011;32528;45.712;9.192;2023-07-02T10:13:45;12.00;;;7.97;;
28459;SDS011;32528;45.712;9.192;2023-07-02T10:15:45;12.80;;;8.07;;
28459;SDS011;32528;45.712;9.192;2023-07-02T10:17:53;14.97;;;7.70;;
28459;SDS011;32528;45.712;9.192;2023-07-02T10:19:57;14.60;;;7.75;;
28459;SDS011;32528;45.712;9.192;2023-07-02T10:22:02;11.15;;;6.68;;
28459;SDS011;32528;45.712;9.192;2023-07-02T10:26:14;11.38;;;7.55;;
28459;SDS011;32528;45.712;9.192;2023-07-02T10:28:18;14.82;;;7.78;;
28459;SDS011;32528;45.712;9.192;2023-07-02T10:30:31;14.60;;;7.75;;
28459;SDS011;32528;45.712;9.192;2023-07-02T10:32:36;13.55;;;6.93;;
28459;SDS011;32528;45.712;9.192;2023-07-02T10:34:38;13.13;;;7.03;;
28459;SDS011;32528;45.712;9.192;2023-07-02T10:36:38;9.63;;;6.57;;
28459;SDS011;32528;45.712;9.192;2023-07-02T10:38:39;11.25;;;7.15;;
28459;SDS011;32528;45.712;9.192;2023-07-02T10:40:41;15.00;;;7.47;;
28459;SDS011;32528;45.712;9.192;2023-07-02T10:42:47;10.07;;;6.77;;
28459;SDS011;32528;45.712;9.192;2023-07-02T10:44:52;11.13;;;7.18;;
28459;SDS011;32528;45.712;9.192;2023-07-02T10:46:53;14.50;;;6.55;;
28459;SDS011;32528;45.712;9.192;2023-07-02T10:48:54;15.02;;;8.60;;
28459;SDS011;32528;45.712;9.192;2023-07-02T10:50:56;10.27;;;6.57;;
28459;SDS011;32528;45.712;9.192;2023-07-02T10:52:57;12.88;;;6.85;;
28459;SDS011;32528;45.712;9.192;2023-07-02T10:54:57;10.07;;;6.23;;
28459;SDS011;32528;45.712;9.192;2023-07-02T10:56:59;9.80;;;6.00;;
28459;SDS011;32528;45.712;9.192;2023-07-02T10:59:00;10.15;;;5.90;;
28459;SDS011;32528;45.712;9.192;2023-07-02T11:01:01;9.57;;;6.28;;
28459;SDS011;32528;45.712;9.192;2023-07-02T11:03:02;10.38;;;5.63;;
28459;SDS011;32528;45.712;9.192;2023-07-02T11:05:05;8.10;;;5.72;;
28459;SDS011;32528;45.712;9.192;2023-07-02T11:07:07;9.32;;;6.18;;
28459;SDS011;32528;45.712;9.192;2023-07-02T11:09:17;8.45;;;5.90;;
28459;SDS011;32528;45.712;9.192;2023-07-02T11:11:20;10.03;;;5.83;;
28459;SDS011;32528;45.712;9.192;2023-07-02T11:13:22;9.10;;;6.30;;
28459;SDS011;32528;45.712;9.192;2023-07-02T11:15:23;11.50;;;6.63;;
28459;SDS011;32528;45.712;9.192;2023-07-02T11:17:24;9.13;;;5.95;;
28459;SDS011;32528;45.712;9.192;2023-07-02T11:19:26;9.50;;;6.20;;
28459;SDS011;32528;45.712;9.192;2023-07-02T11:21:27;11.73;;;5.87;;
28459;SDS011;32528;45.712;9.192;2023-07-02T11:23:27;8.97;;;6.40;;
28459;SDS011;32528;45.712;9.192;2023-07-02T11:25:31;9.35;;;5.80;;
28459;SDS011;32528;45.712;9.192;2023-07-02T11:27:31;11.65;;;6.10;;
28459;SDS011;32528;45.712;9.192;2023-07-02T11:29:33;8.40;;;4.80;;
28459;SDS011;32528;45.712;9.192;2023-07-02T11:31:34;8.23;;;5.65;;
28459;SDS011;32528;45.712;9.192;2023-07-02T11:33:38;10.40;;;5.23;;
28459;SDS011;32528;45.712;9.192;2023-07-02T11:35:40;8.82;;;5.50;;
28459;SDS011;32528;45.712;9.192;2023-07-02T11:37:41;11.07;;;5.63;;
28459;SDS011;32528;45.712;9.192;2023-07-02T11:39:42;8.57;;;5.03;;
28459;SDS011;32528;45.712;9.192;2023-07-02T11:41:44;10.55;;;5.38;;
28459;SDS011;32528;45.712;9.192;2023-07-02T11:43:45;8.68;;;5.32;;
28459;SDS011;32528;45.712;9.192;2023-07-02T11:45:47;7.85;;;5.10;;
28459;SDS011;32528;45.712;9.192;2023-07-02T11:47:47;9.23;;;5.32;;
28459;SDS011;32528;45.712;9.192;2023-07-02T11:49:48;10.93;;;5.40;;
28459;SDS011;32528;45.712;9.192;2023-07-02T11:51:49;7.13;;;4.47;;
28459;SDS011;32528;45.712;9.192;2023-07-02T11:53:50;9.98;;;5.18;;
28459;SDS011;32528;45.712;9.192;2023-07-02T11:55:51;9.05;;;5.10;;
28459;SDS011;32528;45.712;9.192;2023-07-02T11:57:52;8.13;;;4.40;;
28459;SDS011;32528;45.712;9.192;2023-07-02T11:59:52;8.23;;;4.72;;
28459;SDS011;32528;45.712;9.192;2023-07-02T12:01:53;8.43;;;4.90;;
28459;SDS011;32528;45.712;9.192;2023-07-02T12:03:54;12.27;;;4.73;;
28459;SDS011;32528;45.712;9.192;2023-07-02T12:05:55;7.68;;;4.45;;
28459;SDS011;32528;45.712;9.192;2023-07-02T12:07:56;11.70;;;5.00;;
28459;SDS011;32528;45.712;9.192;2023-07-02T12:09:56;7.80;;;4.37;;
28459;SDS011;32528;45.712;9.192;2023-07-02T12:11:57;7.60;;;4.63;;
28459;SDS011;32528;45.712;9.192;2023-07-02T12:13:58;12.60;;;4.90;;
28459;SDS011;32528;45.712;9.192;2023-07-02T12:15:58;7.20;;;4.53;;
28459;SDS011;32528;45.712;9.192;2023-07-02T12:18:00;9.23;;;4.60;;
28459;SDS011;32528;45.712;9.192;2023-07-02T12:20:01;7.43;;;4.07;;
28459;SDS011;32528;45.712;9.192;2023-07-02T12:22:04;7.78;;;4.20;;
28459;SDS011;32528;45.712;9.192;2023-07-02T12:24:05;10.33;;;4.83;;
28459;SDS011;32528;45.712;9.192;2023-07-02T12:26:11;10.25;;;4.22;;
28459;SDS011;32528;45.712;9.192;2023-07-02T12:28:12;9.35;;;4.60;;
28459;SDS011;32528;45.712;9.192;2023-07-02T12:30:15;8.93;;;4.35;;
28459;SDS011;32528;45.712;9.192;2023-07-02T12:32:17;7.95;;;3.83;;
28459;SDS011;32528;45.712;9.192;2023-07-02T12:34:18;7.22;;;3.88;;
28459;SDS011;32528;45.712;9.192;2023-07-02T12:36:19;6.47;;;3.60;;
28459;SDS011;32528;45.712;9.192;2023-07-02T12:38:20;11.32;;;4.15;;
28459;SDS011;32528;45.712;9.192;2023-07-02T12:40:20;6.75;;;3.90;;
28459;SDS011;32528;45.712;9.192;2023-07-02T12:42:22;8.73;;;4.90;;
28459;SDS011;32528;45.712;9.192;2023-07-02T12:44:23;9.32;;;3.95;;
28459;SDS011;32528;45.712;9.192;2023-07-02T12:46:24;8.33;;;4.20;;
28459;SDS011;32528;45.712;9.192;2023-07-02T12:48:25;8.55;;;4.18;;
28459;SDS011;32528;45.712;9.192;2023-07-02T12:50:25;7.33;;;4.00;;
28459;SDS011;32528;45.712;9.192;2023-07-02T12:52:27;7.38;;;4.18;;
28459;SDS011;32528;45.712;9.192;2023-07-02T12:54:29;7.85;;;3.70;;
28459;SDS011;32528;45.712;9.192;2023-07-02T12:56:29;8.88;;;4.20;;
28459;SDS011;32528;45.712;9.192;2023-07-02T12:58:31;7.70;;;3.75;;
28459;SDS011;32528;45.712;9.192;2023-07-02T13:00:32;8.90;;;4.55;;
28459;SDS011;32528;45.712;9.192;2023-07-02T13:02:33;6.57;;;3.97;;
28459;SDS011;32528;45.712;9.192;2023-07-02T13:04:34;8.10;;;4.03;;
28459;SDS011;32528;45.712;9.192;2023-07-02T13:06:34;8.50;;;4.03;;
28459;SDS011;32528;45.712;9.192;2023-07-02T13:08:40;8.32;;;4.18;;
28459;SDS011;32528;45.712;9.192;2023-07-02T13:10:41;7.97;;;3.92;;
28459;SDS011;32528;45.712;9.192;2023-07-02T13:12:41;7.93;;;4.57;;
28459;SDS011;32528;45.712;9.192;2023-07-02T13:14:43;11.30;;;4.53;;
28459;SDS011;32528;45.712;9.192;2023-07-02T13:16:43;7.50;;;3.97;;
28459;SDS011;32528;45.712;9.192;2023-07-02T13:18:46;8.95;;;3.95;;
28459;SDS011;32528;45.712;9.192;2023-07-02T13:20:46;7.55;;;4.15;;
28459;SDS011;32528;45.712;9.192;2023-07-02T13:22:47;10.77;;;4.50;;